Lake Murray Shores, South Carolina
Current Conditions -  °F | °C
As of 7:40 AM on Wednesday 26 Nov 2014 (Local Time) from KCAE Reporting Station
Light Rain Light Rain  
Wind Chill: 47°   Ceiling: 4200
Heat Index: 49°   Visibility: 4mi
Dew Point: 47°   Wind: 5mph
Humidity: 93%   Direction: 320°NW
Pressure: 29.98"   Gusts: NA
Location:  33.8822°N, 81.433°W
Report Text: KCAE 261240Z 32004KT 4SM -RA BR SCT017 SCT026 OVC042 09/08 A2998 RMK AO2 P0004 T00940083
Loading
Personal Weather Stations






























Interactive Weather Map New forecast layout! Learn more

10-Day Weather Forecast

Advertisements
Track Severe Weather on mobile